KEPH/EPH METAR and TAF weather

Enter ICAO airport designator
Station Type Date Time Source
KEPH METAR 2022/11/30 11:37 UTC NOAA

KEPH 301137Z AUTO 31008KT 1 3/4SM -SN BR OVC016 M05/M07 A2954 RMK AO2 P0001 T10501072


Station Type Date Time Source
KEPH Decoded METAR 2022/11/30 11:37 UTC NOAA

EPHRATA MUNICIPAL AIRPORT, WA, United States (KEPH) 47-18N 119-31W 383M
Nov 30, 2022 - 06:37 AM EST / 2022.11.30 1137 UTC
Wind: from the NW (310 degrees) at 9 MPH (8 KT):0
Visibility: 1 3/4 mile(s):0
Sky conditions: overcast
Weather: light snow; mist
Precipitation last hour: 0.01 inches
Temperature: 23.0 F (-5.0 C)
Windchill: 14 F (-10 C):1
Dew Point: 19.0 F (-7.2 C)
Relative Humidity: 84%
Pressure (altimeter): 29.54 in. Hg (1000 hPa)
ob: KEPH 301137Z AUTO 31008KT 1 3/4SM -SN BR OVC016 M05/M07 A2954 RMK AO2 P0001 T10501072
cycle: 11

Station Type Date Time Source
KEPH TAF UTC NOAA

Error!

Example: see airport list